Airfield :
LOGIN :

Register | Disclaimer

   EN    FR    IT 

 










Legend :    VFR   Marginal VFR   IFR   Intensive IFR   Very Intensive IFR
Visi :
Ceiling :
>= 8 km
>= 3000ft
5 to 8 km
1000 to 3000 ft
1500m to 5 km
500 to 1000 ft
800 to 1500m
200 to 500 ft
< 800m
< 200 ft
Symbols :   Thunderstorms  Fog  Heavy snow  Heavy precipitations  Wind > 20 kt
SIGMETs :     Misc.  Thunderstorms  Icing  Turbulence  Mountain Waves  Volcanic Ashes







- Airport Elevation : 266 ft
- IATA code : NCL
- Download approach charts


EGNT - Newcastle

CURRENT METAR :
  • 162250Z 18009KT 150V230 9999 BKN025 13/12 Q1009

EXPIRED METARs :
  • 162220Z 17006KT 130V210 9999 SCT020 13/12 Q1009
  • 162150Z 17008KT 130V210 9999 VCSH SCT020 SCT048 13/11 Q1010
  • 162120Z 17007KT 120V200 9999 VCSH SCT020 SCT048 13/11 Q1010
  • 162050Z 17007KT 140V210 9999 -SHRA SCT025 14/10 Q1010
  • 162020Z 18008KT 150V210 9999 SCT040 14/09 Q1010
  • 161950Z 20006KT 160V240 9999 SCT049 14/09 Q1010

TAF TAF EGNT
Valid from the 16 at 18:00 until the 17 at 18:00 UTC


161700Z 1618/1718 19008KT 9999 FEW030
TEMPO 1618/1706 8000 -RA
PROB30
TEMPO 1618/1703 RA
PROB30
TEMPO 1622/1706 18015G28KT
TEMPO 1709/1718 19015G25KT 8000 SHRA
ATIS : +44 191 214 3400
No reported NOTAMs for that airfield.



MET'MAP, your aeronautical weather chart ! - Copyright ORBIFLY December 2007 - Disclaimer

ORBIFLY MET'MAP TEAM :

Programming & Development : Alexandra Zaïnal
Concept & Development : Baudouin d'Aumeries
Co-Development & Prog : Marc-Olivier Méhu
Technical & hardware support : Manuel Goepfert

Contact : metmap@orbifly.com




SOURCES & CREDITS :

   NOAA